sensor_id;sensor_type;location;lat;lon;timestamp;P1;durP1;ratioP1;P2;durP2;ratioP2
16667;SDS011;8447;52.630;4.734;2023-06-10T00:01:09;8.20;;;3.00;;
16667;SDS011;8447;52.630;4.734;2023-06-10T00:03:36;5.03;;;2.90;;
16667;SDS011;8447;52.630;4.734;2023-06-10T00:06:02;5.90;;;3.47;;
16667;SDS011;8447;52.630;4.734;2023-06-10T00:08:29;6.77;;;3.13;;
16667;SDS011;8447;52.630;4.734;2023-06-10T00:10:56;6.93;;;3.30;;
16667;SDS011;8447;52.630;4.734;2023-06-10T00:13:23;5.07;;;2.90;;
16667;SDS011;8447;52.630;4.734;2023-06-10T00:15:51;6.77;;;3.87;;
16667;SDS011;8447;52.630;4.734;2023-06-10T00:18:17;7.83;;;3.43;;
16667;SDS011;8447;52.630;4.734;2023-06-10T00:20:46;5.63;;;3.50;;
16667;SDS011;8447;52.630;4.734;2023-06-10T00:23:13;5.33;;;3.20;;
16667;SDS011;8447;52.630;4.734;2023-06-10T00:25:40;6.53;;;3.83;;
16667;SDS011;8447;52.630;4.734;2023-06-10T00:28:06;8.10;;;3.80;;
16667;SDS011;8447;52.630;4.734;2023-06-10T00:30:33;7.07;;;3.73;;
16667;SDS011;8447;52.630;4.734;2023-06-10T00:33:00;8.13;;;4.27;;
16667;SDS011;8447;52.630;4.734;2023-06-10T00:35:27;6.20;;;2.77;;
16667;SDS011;8447;52.630;4.734;2023-06-10T00:37:53;8.03;;;3.40;;
16667;SDS011;8447;52.630;4.734;2023-06-10T00:40:20;9.13;;;3.20;;
16667;SDS011;8447;52.630;4.734;2023-06-10T00:42:46;6.80;;;3.40;;
16667;SDS011;8447;52.630;4.734;2023-06-10T00:45:12;7.13;;;3.00;;
16667;SDS011;8447;52.630;4.734;2023-06-10T00:47:39;5.97;;;3.80;;
16667;SDS011;8447;52.630;4.734;2023-06-10T00:50:07;5.57;;;3.50;;
16667;SDS011;8447;52.630;4.734;2023-06-10T00:52:33;4.00;;;3.10;;
16667;SDS011;8447;52.630;4.734;2023-06-10T00:55:01;6.53;;;3.17;;
16667;SDS011;8447;52.630;4.734;2023-06-10T00:57:28;9.93;;;3.50;;
16667;SDS011;8447;52.630;4.734;2023-06-10T00:59:54;3.80;;;2.97;;
16667;SDS011;8447;52.630;4.734;2023-06-10T01:02:21;7.50;;;3.80;;
16667;SDS011;8447;52.630;4.734;2023-06-10T01:04:47;4.73;;;3.07;;
16667;SDS011;8447;52.630;4.734;2023-06-10T01:07:17;5.93;;;3.50;;
16667;SDS011;8447;52.630;4.734;2023-06-10T01:09:49;5.83;;;3.17;;
16667;SDS011;8447;52.630;4.734;2023-06-10T01:12:19;5.90;;;3.37;;
16667;SDS011;8447;52.630;4.734;2023-06-10T01:14:47;5.23;;;3.20;;
16667;SDS011;8447;52.630;4.734;2023-06-10T01:17:13;5.73;;;2.90;;
16667;SDS011;8447;52.630;4.734;2023-06-10T01:19:41;5.87;;;3.53;;
16667;SDS011;8447;52.630;4.734;2023-06-10T01:22:10;7.13;;;3.20;;
16667;SDS011;8447;52.630;4.734;2023-06-10T01:24:41;5.67;;;2.40;;
16667;SDS011;8447;52.630;4.734;2023-06-10T01:27:10;8.77;;;3.67;;
16667;SDS011;8447;52.630;4.734;2023-06-10T01:29:40;6.23;;;3.03;;
16667;SDS011;8447;52.630;4.734;2023-06-10T01:32:08;4.23;;;2.90;;
16667;SDS011;8447;52.630;4.734;2023-06-10T01:34:35;6.20;;;2.80;;
16667;SDS011;8447;52.630;4.734;2023-06-10T01:37:03;6.30;;;2.77;;
16667;SDS011;8447;52.630;4.734;2023-06-10T01:39:31;4.67;;;3.00;;
16667;SDS011;8447;52.630;4.734;2023-06-10T01:41:58;6.63;;;3.20;;
16667;SDS011;8447;52.630;4.734;2023-06-10T01:44:24;4.93;;;2.73;;
16667;SDS011;8447;52.630;4.734;2023-06-10T01:46:51;4.53;;;3.27;;
16667;SDS011;8447;52.630;4.734;2023-06-10T01:49:17;3.70;;;2.83;;
16667;SDS011;8447;52.630;4.734;2023-06-10T01:51:44;4.33;;;2.93;;
16667;SDS011;8447;52.630;4.734;2023-06-10T01:54:10;4.90;;;3.30;;
16667;SDS011;8447;52.630;4.734;2023-06-10T01:56:38;4.90;;;2.87;;
16667;SDS011;8447;52.630;4.734;2023-06-10T01:59:04;7.80;;;3.30;;
16667;SDS011;8447;52.630;4.734;2023-06-10T02:01:30;4.10;;;3.10;;
16667;SDS011;8447;52.630;4.734;2023-06-10T02:03:57;7.13;;;3.00;;
16667;SDS011;8447;52.630;4.734;2023-06-10T02:06:23;6.83;;;3.00;;
16667;SDS011;8447;52.630;4.734;2023-06-10T02:08:50;6.50;;;3.00;;
16667;SDS011;8447;52.630;4.734;2023-06-10T02:11:16;6.60;;;3.27;;
16667;SDS011;8447;52.630;4.734;2023-06-10T02:13:44;6.10;;;3.30;;
16667;SDS011;8447;52.630;4.734;2023-06-10T02:16:10;6.23;;;3.83;;
16667;SDS011;8447;52.630;4.734;2023-06-10T02:18:37;4.03;;;3.30;;
16667;SDS011;8447;52.630;4.734;2023-06-10T02:21:05;4.60;;;3.17;;
16667;SDS011;8447;52.630;4.734;2023-06-10T02:23:32;7.23;;;3.67;;
16667;SDS011;8447;52.630;4.734;2023-06-10T02:25:58;5.37;;;3.20;;
16667;SDS011;8447;52.630;4.734;2023-06-10T02:28:25;7.07;;;3.63;;
16667;SDS011;8447;52.630;4.734;2023-06-10T02:30:52;7.47;;;3.30;;
16667;SDS011;8447;52.630;4.734;2023-06-10T02:33:19;6.53;;;3.80;;
16667;SDS011;8447;52.630;4.734;2023-06-10T02:35:45;4.60;;;3.47;;
16667;SDS011;8447;52.630;4.734;2023-06-10T02:38:12;5.03;;;3.30;;
16667;SDS011;8447;52.630;4.734;2023-06-10T02:40:38;9.70;;;3.40;;
16667;SDS011;8447;52.630;4.734;2023-06-10T02:43:04;4.83;;;3.27;;
16667;SDS011;8447;52.630;4.734;2023-06-10T02:45:31;6.10;;;3.63;;
16667;SDS011;8447;52.630;4.734;2023-06-10T02:47:59;5.73;;;3.40;;
16667;SDS011;8447;52.630;4.734;2023-06-10T02:50:25;6.30;;;3.50;;
16667;SDS011;8447;52.630;4.734;2023-06-10T02:52:51;4.93;;;3.20;;
16667;SDS011;8447;52.630;4.734;2023-06-10T02:55:18;7.27;;;3.63;;
16667;SDS011;8447;52.630;4.734;2023-06-10T02:57:44;5.47;;;3.37;;
16667;SDS011;8447;52.630;4.734;2023-06-10T03:00:11;7.33;;;3.60;;
16667;SDS011;8447;52.630;4.734;2023-06-10T03:02:39;6.13;;;3.13;;
16667;SDS011;8447;52.630;4.734;2023-06-10T03:05:07;5.57;;;3.57;;
16667;SDS011;8447;52.630;4.734;2023-06-10T03:07:35;4.93;;;3.50;;
16667;SDS011;8447;52.630;4.734;2023-06-10T03:10:01;6.33;;;3.33;;
16667;SDS011;8447;52.630;4.734;2023-06-10T03:12:28;6.77;;;3.57;;
16667;SDS011;8447;52.630;4.734;2023-06-10T03:14:54;9.20;;;3.33;;
16667;SDS011;8447;52.630;4.734;2023-06-10T03:17:20;7.80;;;3.27;;
16667;SDS011;8447;52.630;4.734;2023-06-10T03:19:47;6.63;;;3.77;;
16667;SDS011;8447;52.630;4.734;2023-06-10T03:22:15;4.73;;;3.17;;
16667;SDS011;8447;52.630;4.734;2023-06-10T03:24:42;5.97;;;3.43;;
16667;SDS011;8447;52.630;4.734;2023-06-10T03:27:11;4.93;;;3.27;;
16667;SDS011;8447;52.630;4.734;2023-06-10T03:29:38;6.10;;;3.73;;
16667;SDS011;8447;52.630;4.734;2023-06-10T03:32:05;7.27;;;3.47;;
16667;SDS011;8447;52.630;4.734;2023-06-10T03:34:32;8.93;;;3.60;;
16667;SDS011;8447;52.630;4.734;2023-06-10T03:36:58;5.47;;;3.43;;
16667;SDS011;8447;52.630;4.734;2023-06-10T03:39:26;5.43;;;3.77;;
16667;SDS011;8447;52.630;4.734;2023-06-10T03:41:54;5.57;;;3.33;;
16667;SDS011;8447;52.630;4.734;2023-06-10T03:44:20;7.30;;;4.03;;
16667;SDS011;8447;52.630;4.734;2023-06-10T03:46:47;9.90;;;3.90;;
16667;SDS011;8447;52.630;4.734;2023-06-10T03:49:13;5.37;;;3.60;;
16667;SDS011;8447;52.630;4.734;2023-06-10T03:51:40;5.30;;;3.37;;
16667;SDS011;8447;52.630;4.734;2023-06-10T03:54:06;5.73;;;3.67;;
16667;SDS011;8447;52.630;4.734;2023-06-10T03:56:34;7.67;;;4.00;;
16667;SDS011;8447;52.630;4.734;2023-06-10T03:59:01;9.17;;;4.23;;
16667;SDS011;8447;52.630;4.734;2023-06-10T04:01:27;8.30;;;3.70;;
16667;SDS011;8447;52.630;4.734;2023-06-10T04:03:54;6.33;;;3.60;;
16667;SDS011;8447;52.630;4.734;2023-06-10T04:06:20;6.77;;;4.17;;
16667;SDS011;8447;52.630;4.734;2023-06-10T04:08:47;5.97;;;3.77;;
16667;SDS011;8447;52.630;4.734;2023-06-10T04:11:14;11.00;;;3.67;;
16667;SDS011;8447;52.630;4.734;2023-06-10T04:13:41;8.27;;;3.83;;
16667;SDS011;8447;52.630;4.734;2023-06-10T04:16:08;11.70;;;4.60;;
16667;SDS011;8447;52.630;4.734;2023-06-10T04:18:34;6.10;;;3.83;;
16667;SDS011;8447;52.630;4.734;2023-06-10T04:21:01;6.90;;;3.73;;
16667;SDS011;8447;52.630;4.734;2023-06-10T04:23:27;5.47;;;4.23;;
16667;SDS011;8447;52.630;4.734;2023-06-10T04:25:54;6.70;;;3.90;;
16667;SDS011;8447;52.630;4.734;2023-06-10T04:28:20;8.13;;;4.70;;
16667;SDS011;8447;52.630;4.734;2023-06-10T04:30:48;6.13;;;4.03;;
16667;SDS011;8447;52.630;4.734;2023-06-10T04:33:14;5.43;;;3.73;;
16667;SDS011;8447;52.630;4.734;2023-06-10T04:35:41;8.63;;;4.00;;
16667;SDS011;8447;52.630;4.734;2023-06-10T04:38:07;6.27;;;3.80;;
16667;SDS011;8447;52.630;4.734;2023-06-10T04:40:34;6.97;;;3.73;;
16667;SDS011;8447;52.630;4.734;2023-06-10T04:43:00;7.03;;;4.07;;
16667;SDS011;8447;52.630;4.734;2023-06-10T04:45:26;7.63;;;3.47;;
16667;SDS011;8447;52.630;4.734;2023-06-10T04:47:56;7.27;;;3.67;;
16667;SDS011;8447;52.630;4.734;2023-06-10T04:50:23;6.17;;;3.87;;
16667;SDS011;8447;52.630;4.734;2023-06-10T04:52:49;7.73;;;4.40;;
16667;SDS011;8447;52.630;4.734;2023-06-10T04:55:16;10.10;;;4.20;;
16667;SDS011;8447;52.630;4.734;2023-06-10T04:57:42;7.87;;;4.30;;
16667;SDS011;8447;52.630;4.734;2023-06-10T05:00:09;9.33;;;4.17;;
16667;SDS011;8447;52.630;4.734;2023-06-10T05:02:35;6.73;;;4.30;;
16667;SDS011;8447;52.630;4.734;2023-06-10T05:05:03;7.37;;;4.00;;
16667;SDS011;8447;52.630;4.734;2023-06-10T05:07:31;8.30;;;4.17;;
16667;SDS011;8447;52.630;4.734;2023-06-10T05:09:57;5.60;;;3.63;;
16667;SDS011;8447;52.630;4.734;2023-06-10T05:12:23;6.43;;;4.00;;
16667;SDS011;8447;52.630;4.734;2023-06-10T05:14:50;4.87;;;3.33;;
16667;SDS011;8447;52.630;4.734;2023-06-10T05:17:16;6.03;;;3.93;;
16667;SDS011;8447;52.630;4.734;2023-06-10T05:19:43;9.73;;;4.07;;
16667;SDS011;8447;52.630;4.734;2023-06-10T05:22:10;8.30;;;3.90;;
16667;SDS011;8447;52.630;4.734;2023-06-10T05:24:38;5.87;;;4.10;;
16667;SDS011;8447;52.630;4.734;2023-06-10T05:27:05;6.63;;;4.27;;
16667;SDS011;8447;52.630;4.734;2023-06-10T05:29:31;7.80;;;4.23;;
16667;SDS011;8447;52.630;4.734;2023-06-10T05:31:58;4.43;;;3.67;;
16667;SDS011;8447;52.630;4.734;2023-06-10T05:34:28;10.53;;;4.07;;
16667;SDS011;8447;52.630;4.734;2023-06-10T05:36:54;6.60;;;4.20;;
16667;SDS011;8447;52.630;4.734;2023-06-10T05:39:22;6.50;;;4.03;;
16667;SDS011;8447;52.630;4.734;2023-06-10T05:41:48;8.47;;;4.00;;
16667;SDS011;8447;52.630;4.734;2023-06-10T05:44:15;5.27;;;4.03;;
16667;SDS011;8447;52.630;4.734;2023-06-10T05:46:41;10.23;;;3.90;;
16667;SDS011;8447;52.630;4.734;2023-06-10T05:49:07;8.63;;;5.03;;
16667;SDS011;8447;52.630;4.734;2023-06-10T05:51:34;9.07;;;4.37;;
16667;SDS011;8447;52.630;4.734;2023-06-10T05:54:01;4.87;;;3.40;;
16667;SDS011;8447;52.630;4.734;2023-06-10T05:56:29;7.90;;;3.60;;
16667;SDS011;8447;52.630;4.734;2023-06-10T05:58:56;9.17;;;4.23;;
16667;SDS011;8447;52.630;4.734;2023-06-10T06:01:22;6.77;;;4.83;;
16667;SDS011;8447;52.630;4.734;2023-06-10T06:03:48;6.23;;;4.43;;
16667;SDS011;8447;52.630;4.734;2023-06-10T06:06:15;6.93;;;3.87;;
16667;SDS011;8447;52.630;4.734;2023-06-10T06:08:41;7.80;;;4.17;;
16667;SDS011;8447;52.630;4.734;2023-06-10T06:11:09;7.03;;;4.00;;
16667;SDS011;8447;52.630;4.734;2023-06-10T06:13:37;9.30;;;4.37;;
16667;SDS011;8447;52.630;4.734;2023-06-10T06:16:03;6.47;;;4.17;;
16667;SDS011;8447;52.630;4.734;2023-06-10T06:18:30;7.03;;;4.30;;
16667;SDS011;8447;52.630;4.734;2023-06-10T06:20:56;8.87;;;4.27;;
16667;SDS011;8447;52.630;4.734;2023-06-10T06:23:22;8.20;;;4.40;;
16667;SDS011;8447;52.630;4.734;2023-06-10T06:25:49;7.47;;;3.90;;
16667;SDS011;8447;52.630;4.734;2023-06-10T06:28:15;4.90;;;3.70;;
16667;SDS011;8447;52.630;4.734;2023-06-10T06:30:43;8.03;;;3.83;;
16667;SDS011;8447;52.630;4.734;2023-06-10T06:33:09;7.73;;;3.77;;
16667;SDS011;8447;52.630;4.734;2023-06-10T06:35:36;6.87;;;4.07;;
16667;SDS011;8447;52.630;4.734;2023-06-10T06:38:03;5.87;;;3.97;;
16667;SDS011;8447;52.630;4.734;2023-06-10T06:40:29;7.30;;;4.27;;
16667;SDS011;8447;52.630;4.734;2023-06-10T06:42:56;6.70;;;3.63;;
16667;SDS011;8447;52.630;4.734;2023-06-10T06:45:22;5.87;;;3.33;;
16667;SDS011;8447;52.630;4.734;2023-06-10T06:47:50;7.30;;;3.90;;
16667;SDS011;8447;52.630;4.734;2023-06-10T06:50:16;8.00;;;3.63;;
16667;SDS011;8447;52.630;4.734;2023-06-10T06:52:43;3.53;;;3.10;;
16667;SDS011;8447;52.630;4.734;2023-06-10T06:55:09;8.23;;;3.83;;
16667;SDS011;8447;52.630;4.734;2023-06-10T06:57:36;5.50;;;3.93;;
16667;SDS011;8447;52.630;4.734;2023-06-10T07:00:03;8.07;;;3.90;;
16667;SDS011;8447;52.630;4.734;2023-06-10T07:02:29;10.00;;;3.93;;
16667;SDS011;8447;52.630;4.734;2023-06-10T07:04:58;4.93;;;3.60;;
16667;SDS011;8447;52.630;4.734;2023-06-10T07:07:24;7.37;;;4.33;;
16667;SDS011;8447;52.630;4.734;2023-06-10T07:09:51;6.00;;;3.80;;
16667;SDS011;8447;52.630;4.734;2023-06-10T07:12:18;5.47;;;3.33;;
16667;SDS011;8447;52.630;4.734;2023-06-10T07:14:44;6.03;;;4.00;;
16667;SDS011;8447;52.630;4.734;2023-06-10T07:17:10;5.27;;;3.37;;
16667;SDS011;8447;52.630;4.734;2023-06-10T07:19:37;7.00;;;4.17;;
16667;SDS011;8447;52.630;4.734;2023-06-10T07:22:05;8.73;;;4.27;;
16667;SDS011;8447;52.630;4.734;2023-06-10T07:24:31;6.00;;;3.57;;
16667;SDS011;8447;52.630;4.734;2023-06-10T07:26:58;5.07;;;3.63;;
16667;SDS011;8447;52.630;4.734;2023-06-10T07:29:24;5.30;;;4.00;;
16667;SDS011;8447;52.630;4.734;2023-06-10T07:31:50;4.50;;;3.23;;
16667;SDS011;8447;52.630;4.734;2023-06-10T07:34:18;4.73;;;3.37;;
16667;SDS011;8447;52.630;4.734;2023-06-10T07:36:44;5.73;;;4.00;;
16667;SDS011;8447;52.630;4.734;2023-06-10T07:39:12;6.00;;;3.67;;
16667;SDS011;8447;52.630;4.734;2023-06-10T07:41:38;4.77;;;3.00;;
16667;SDS011;8447;52.630;4.734;2023-06-10T07:44:05;12.40;;;3.60;;
16667;SDS011;8447;52.630;4.734;2023-06-10T07:46:31;6.07;;;3.57;;
16667;SDS011;8447;52.630;4.734;2023-06-10T07:48:57;4.87;;;3.37;;
16667;SDS011;8447;52.630;4.734;2023-06-10T07:51:24;4.03;;;3.27;;
16667;SDS011;8447;52.630;4.734;2023-06-10T07:53:50;4.05;;;3.40;;
16667;SDS011;8447;52.630;4.734;2023-06-10T07:56:18;5.73;;;3.30;;
16667;SDS011;8447;52.630;4.734;2023-06-10T07:58:46;5.07;;;3.33;;
16667;SDS011;8447;52.630;4.734;2023-06-10T08:01:13;5.18;;;3.80;;
16667;SDS011;8447;52.630;4.734;2023-06-10T08:03:39;5.68;;;2.83;;
16667;SDS011;8447;52.630;4.734;2023-06-10T08:06:05;4.60;;;3.50;;
16667;SDS011;8447;52.630;4.734;2023-06-10T08:08:32;5.72;;;3.28;;
16667;SDS011;8447;52.630;4.734;2023-06-10T08:10:59;5.80;;;3.75;;
16667;SDS011;8447;52.630;4.734;2023-06-10T08:13:27;4.10;;;2.60;;
16667;SDS011;8447;52.630;4.734;2023-06-10T08:15:53;4.38;;;3.42;;
16667;SDS011;8447;52.630;4.734;2023-06-10T08:18:20;6.40;;;3.15;;
16667;SDS011;8447;52.630;4.734;2023-06-10T08:20:46;5.60;;;3.67;;
16667;SDS011;8447;52.630;4.734;2023-06-10T08:23:13;3.95;;;2.92;;
16667;SDS011;8447;52.630;4.734;2023-06-10T08:25:40;5.82;;;3.40;;
16667;SDS011;8447;52.630;4.734;2023-06-10T08:28:06;4.22;;;2.83;;
16667;SDS011;8447;52.630;4.734;2023-06-10T08:30:34;6.47;;;3.70;;
16667;SDS011;8447;52.630;4.734;2023-06-10T08:33:00;4.93;;;3.25;;
16667;SDS011;8447;52.630;4.734;2023-06-10T08:35:27;5.05;;;3.30;;
16667;SDS011;8447;52.630;4.734;2023-06-10T08:37:53;4.25;;;3.25;;
16667;SDS011;8447;52.630;4.734;2023-06-10T08:40:19;5.60;;;3.28;;
16667;SDS011;8447;52.630;4.734;2023-06-10T08:42:48;6.75;;;3.33;;
16667;SDS011;8447;52.630;4.734;2023-06-10T08:45:16;7.00;;;3.00;;
16667;SDS011;8447;52.630;4.734;2023-06-10T08:47:44;4.10;;;2.70;;
16667;SDS011;8447;52.630;4.734;2023-06-10T08:50:11;6.28;;;3.25;;
16667;SDS011;8447;52.630;4.734;2023-06-10T08:52:39;7.47;;;3.03;;
16667;SDS011;8447;52.630;4.734;2023-06-10T08:55:10;3.72;;;2.90;;
16667;SDS011;8447;52.630;4.734;2023-06-10T08:57:37;4.50;;;2.85;;
16667;SDS011;8447;52.630;4.734;2023-06-10T09:00:04;5.85;;;3.05;;
16667;SDS011;8447;52.630;4.734;2023-06-10T09:02:31;5.65;;;3.17;;
16667;SDS011;8447;52.630;4.734;2023-06-10T09:05:00;5.65;;;2.95;;
16667;SDS011;8447;52.630;4.734;2023-06-10T09:07:26;6.18;;;3.30;;
16667;SDS011;8447;52.630;4.734;2023-06-10T09:09:52;7.53;;;3.47;;
16667;SDS011;8447;52.630;4.734;2023-06-10T09:12:19;5.60;;;3.28;;
16667;SDS011;8447;52.630;4.734;2023-06-10T09:14:45;3.85;;;2.67;;
16667;SDS011;8447;52.630;4.734;2023-06-10T09:17:12;3.15;;;2.85;;
16667;SDS011;8447;52.630;4.734;2023-06-10T09:19:38;5.18;;;2.90;;
16667;SDS011;8447;52.630;4.734;2023-06-10T09:22:07;4.15;;;3.00;;
16667;SDS011;8447;52.630;4.734;2023-06-10T09:24:34;5.22;;;2.80;;
16667;SDS011;8447;52.630;4.734;2023-06-10T09:27:03;4.30;;;2.65;;
16667;SDS011;8447;52.630;4.734;2023-06-10T09:29:30;3.95;;;2.75;;
16667;SDS011;8447;52.630;4.734;2023-06-10T09:31:56;5.70;;;3.20;;
16667;SDS011;8447;52.630;4.734;2023-06-10T09:34:24;6.43;;;2.83;;
16667;SDS011;8447;52.630;4.734;2023-06-10T09:36:51;5.25;;;2.90;;
16667;SDS011;8447;52.630;4.734;2023-06-10T09:39:18;3.92;;;2.75;;
16667;SDS011;8447;52.630;4.734;2023-06-10T09:41:46;4.00;;;2.80;;
16667;SDS011;8447;52.630;4.734;2023-06-10T09:44:12;7.18;;;3.10;;
16667;SDS011;8447;52.630;4.734;2023-06-10T09:46:40;4.47;;;2.70;;
16667;SDS011;8447;52.630;4.734;2023-06-10T09:49:06;4.60;;;2.92;;
16667;SDS011;8447;52.630;4.734;2023-06-10T09:51:33;5.97;;;3.00;;
16667;SDS011;8447;52.630;4.734;2023-06-10T09:53:59;5.15;;;3.25;;
16667;SDS011;8447;52.630;4.734;2023-06-10T09:56:33;4.28;;;3.08;;
16667;SDS011;8447;52.630;4.734;2023-06-10T09:59:00;6.82;;;3.70;;
16667;SDS011;8447;52.630;4.734;2023-06-10T10:01:26;3.15;;;2.88;;
16667;SDS011;8447;52.630;4.734;2023-06-10T10:03:53;3.95;;;2.65;;
16667;SDS011;8447;52.630;4.734;2023-06-10T10:06:20;4.65;;;3.08;;
16667;SDS011;8447;52.630;4.734;2023-06-10T10:08:47;6.60;;;2.65;;
16667;SDS011;8447;52.630;4.734;2023-06-10T10:11:13;5.10;;;2.55;;
16667;SDS011;8447;52.630;4.734;2023-06-10T10:13:41;3.28;;;2.40;;
16667;SDS011;8447;52.630;4.734;2023-06-10T10:16:09;5.22;;;2.60;;
16667;SDS011;8447;52.630;4.734;2023-06-10T10:18:38;4.75;;;2.80;;
16667;SDS011;8447;52.630;4.734;2023-06-10T10:21:05;4.13;;;2.67;;
16667;SDS011;8447;52.630;4.734;2023-06-10T10:23:35;6.95;;;2.95;;
16667;SDS011;8447;52.630;4.734;2023-06-10T10:26:07;6.25;;;2.50;;
16667;SDS011;8447;52.630;4.734;2023-06-10T10:28:38;4.93;;;2.47;;
16667;SDS011;8447;52.630;4.734;2023-06-10T10:31:09;4.13;;;3.17;;
16667;SDS011;8447;52.630;4.734;2023-06-10T10:33:40;6.85;;;2.75;;
16667;SDS011;8447;52.630;4.734;2023-06-10T10:36:08;3.50;;;2.38;;
16667;SDS011;8447;52.630;4.734;2023-06-10T10:38:34;5.85;;;3.10;;
16667;SDS011;8447;52.630;4.734;2023-06-10T10:41:02;4.30;;;2.60;;
16667;SDS011;8447;52.630;4.734;2023-06-10T10:43:28;4.63;;;3.03;;
16667;SDS011;8447;52.630;4.734;2023-06-10T10:45:58;3.42;;;2.60;;
16667;SDS011;8447;52.630;4.734;2023-06-10T10:48:26;5.57;;;2.28;;
16667;SDS011;8447;52.630;4.734;2023-06-10T10:50:56;3.95;;;2.85;;
16667;SDS011;8447;52.630;4.734;2023-06-10T10:53:22;8.13;;;2.80;;
16667;SDS011;8447;52.630;4.734;2023-06-10T10:55:57;6.28;;;2.63;;
16667;SDS011;8447;52.630;4.734;2023-06-10T10:58:24;3.58;;;2.70;;
16667;SDS011;8447;52.630;4.734;2023-06-10T11:00:50;3.85;;;2.40;;
16667;SDS011;8447;52.630;4.734;2023-06-10T11:03:17;4.05;;;2.78;;
16667;SDS011;8447;52.630;4.734;2023-06-10T11:05:45;3.90;;;2.90;;
16667;SDS011;8447;52.630;4.734;2023-06-10T11:08:13;3.95;;;2.75;;
16667;SDS011;8447;52.630;4.734;2023-06-10T11:10:41;9.02;;;3.20;;
16667;SDS011;8447;52.630;4.734;2023-06-10T11:13:08;4.15;;;2.70;;
16667;SDS011;8447;52.630;4.734;2023-06-10T11:15:38;4.07;;;2.35;;
16667;SDS011;8447;52.630;4.734;2023-06-10T11:18:08;6.32;;;2.80;;
16667;SDS011;8447;52.630;4.734;2023-06-10T11:20:41;6.15;;;2.88;;
16667;SDS011;8447;52.630;4.734;2023-06-10T11:23:09;4.18;;;2.42;;
16667;SDS011;8447;52.630;4.734;2023-06-10T11:25:38;5.28;;;2.75;;
16667;SDS011;8447;52.630;4.734;2023-06-10T11:28:05;6.25;;;3.05;;
16667;SDS011;8447;52.630;4.734;2023-06-10T11:30:43;5.65;;;2.70;;
16667;SDS011;8447;52.630;4.734;2023-06-10T11:33:09;5.00;;;2.63;;
16667;SDS011;8447;52.630;4.734;2023-06-10T11:35:40;6.55;;;2.78;;
16667;SDS011;8447;52.630;4.734;2023-06-10T11:38:06;4.95;;;2.50;;
16667;SDS011;8447;52.630;4.734;2023-06-10T11:40:34;4.53;;;2.75;;
16667;SDS011;8447;52.630;4.734;2023-06-10T11:43:01;5.30;;;3.55;;
16667;SDS011;8447;52.630;4.734;2023-06-10T11:45:28;3.30;;;2.65;;
16667;SDS011;8447;52.630;4.734;2023-06-10T11:47:55;4.47;;;2.75;;
16667;SDS011;8447;52.630;4.734;2023-06-10T11:50:27;4.43;;;3.13;;
16667;SDS011;8447;52.630;4.734;2023-06-10T11:52:53;4.78;;;3.08;;
16667;SDS011;8447;52.630;4.734;2023-06-10T11:55:21;5.93;;;3.22;;
16667;SDS011;8447;52.630;4.734;2023-06-10T11:57:48;5.90;;;2.58;;
16667;SDS011;8447;52.630;4.734;2023-06-10T12:00:22;4.22;;;2.60;;
16667;SDS011;8447;52.630;4.734;2023-06-10T12:02:54;5.10;;;3.05;;
16667;SDS011;8447;52.630;4.734;2023-06-10T12:05:22;5.72;;;2.25;;
16667;SDS011;8447;52.630;4.734;2023-06-10T12:07:49;4.25;;;2.88;;
16667;SDS011;8447;52.630;4.734;2023-06-10T12:10:15;4.05;;;2.80;;
16667;SDS011;8447;52.630;4.734;2023-06-10T12:12:41;4.18;;;2.75;;
16667;SDS011;8447;52.630;4.734;2023-06-10T12:15:09;5.47;;;2.97;;
16667;SDS011;8447;52.630;4.734;2023-06-10T12:17:37;4.40;;;2.75;;
16667;SDS011;8447;52.630;4.734;2023-06-10T12:20:04;4.05;;;2.67;;
16667;SDS011;8447;52.630;4.734;2023-06-10T12:22:40;4.43;;;2.85;;
16667;SDS011;8447;52.630;4.734;2023-06-10T12:25:07;4.88;;;2.63;;
16667;SDS011;8447;52.630;4.734;2023-06-10T12:27:33;3.65;;;2.08;;
16667;SDS011;8447;52.630;4.734;2023-06-10T12:30:00;5.18;;;3.05;;
16667;SDS011;8447;52.630;4.734;2023-06-10T12:32:37;4.78;;;2.80;;
16667;SDS011;8447;52.630;4.734;2023-06-10T12:35:04;6.53;;;2.97;;
16667;SDS011;8447;52.630;4.734;2023-06-10T12:37:31;4.77;;;2.63;;
16667;SDS011;8447;52.630;4.734;2023-06-10T12:39:59;4.20;;;2.53;;
16667;SDS011;8447;52.630;4.734;2023-06-10T12:42:27;7.60;;;2.57;;
16667;SDS011;8447;52.630;4.734;2023-06-10T12:44:54;5.00;;;3.03;;
16667;SDS011;8447;52.630;4.734;2023-06-10T12:47:28;4.90;;;3.40;;
16667;SDS011;8447;52.630;4.734;2023-06-10T12:49:58;6.07;;;3.10;;
16667;SDS011;8447;52.630;4.734;2023-06-10T12:52:24;4.33;;;2.63;;
16667;SDS011;8447;52.630;4.734;2023-06-10T12:54:51;4.97;;;2.63;;
16667;SDS011;8447;52.630;4.734;2023-06-10T12:57:20;3.77;;;2.57;;
16667;SDS011;8447;52.630;4.734;2023-06-10T12:59:46;4.93;;;2.87;;
16667;SDS011;8447;52.630;4.734;2023-06-10T13:02:17;3.53;;;2.27;;
16667;SDS011;8447;52.630;4.734;2023-06-10T13:04:43;5.00;;;3.00;;
16667;SDS011;8447;52.630;4.734;2023-06-10T13:07:11;7.90;;;3.07;;
16667;SDS011;8447;52.630;4.734;2023-06-10T13:09:38;5.53;;;2.90;;
16667;SDS011;8447;52.630;4.734;2023-06-10T13:12:05;4.40;;;2.97;;
16667;SDS011;8447;52.630;4.734;2023-06-10T13:14:31;6.63;;;2.67;;
16667;SDS011;8447;52.630;4.734;2023-06-10T13:16:57;6.73;;;2.63;;
16667;SDS011;8447;52.630;4.734;2023-06-10T13:19:24;7.50;;;2.37;;
16667;SDS011;8447;52.630;4.734;2023-06-10T13:21:51;4.63;;;2.77;;
16667;SDS011;8447;52.630;4.734;2023-06-10T13:24:19;4.60;;;2.87;;
16667;SDS011;8447;52.630;4.734;2023-06-10T13:26:46;3.97;;;2.73;;
16667;SDS011;8447;52.630;4.734;2023-06-10T13:29:12;3.27;;;2.70;;
16667;SDS011;8447;52.630;4.734;2023-06-10T13:31:39;8.17;;;3.00;;
16667;SDS011;8447;52.630;4.734;2023-06-10T13:34:06;4.77;;;2.87;;
16667;SDS011;8447;52.630;4.734;2023-06-10T13:36:32;4.17;;;3.27;;
16667;SDS011;8447;52.630;4.734;2023-06-10T13:38:59;6.27;;;3.20;;
16667;SDS011;8447;52.630;4.734;2023-06-10T13:41:27;5.57;;;2.80;;
16667;SDS011;8447;52.630;4.734;2023-06-10T13:43:53;4.60;;;2.77;;
16667;SDS011;8447;52.630;4.734;2023-06-10T13:46:20;9.60;;;3.43;;
16667;SDS011;8447;52.630;4.734;2023-06-10T13:48:48;7.37;;;3.20;;
16667;SDS011;8447;52.630;4.734;2023-06-10T13:51:14;3.97;;;2.43;;
16667;SDS011;8447;52.630;4.734;2023-06-10T13:53:41;4.33;;;3.03;;
16667;SDS011;8447;52.630;4.734;2023-06-10T13:56:07;3.90;;;2.90;;
16667;SDS011;8447;52.630;4.734;2023-06-10T13:58:35;3.63;;;2.80;;
16667;SDS011;8447;52.630;4.734;2023-06-10T14:01:04;3.93;;;2.77;;
16667;SDS011;8447;52.630;4.734;2023-06-10T14:03:30;5.67;;;3.20;;
16667;SDS011;8447;52.630;4.734;2023-06-10T14:05:57;3.17;;;2.57;;
16667;SDS011;8447;52.630;4.734;2023-06-10T14:08:24;7.10;;;2.90;;
16667;SDS011;8447;52.630;4.734;2023-06-10T14:10:50;3.07;;;2.60;;
16667;SDS011;8447;52.630;4.734;2023-06-10T14:13:17;4.57;;;2.90;;
16667;SDS011;8447;52.630;4.734;2023-06-10T14:15:45;4.17;;;2.63;;
16667;SDS011;8447;52.630;4.734;2023-06-10T14:18:11;3.17;;;2.20;;
16667;SDS011;8447;52.630;4.734;2023-06-10T14:20:38;5.87;;;2.90;;
16667;SDS011;8447;52.630;4.734;2023-06-10T14:23:04;2.13;;;1.87;;
16667;SDS011;8447;52.630;4.734;2023-06-10T14:25:30;3.70;;;2.10;;
16667;SDS011;8447;52.630;4.734;2023-06-10T14:27:57;4.10;;;2.80;;
16667;SDS011;8447;52.630;4.734;2023-06-10T14:30:23;5.27;;;2.93;;
16667;SDS011;8447;52.630;4.734;2023-06-10T14:32:51;4.27;;;2.80;;
16667;SDS011;8447;52.630;4.734;2023-06-10T14:35:17;4.63;;;2.70;;
16667;SDS011;8447;52.630;4.734;2023-06-10T14:37:44;3.60;;;2.40;;
16667;SDS011;8447;52.630;4.734;2023-06-10T14:40:10;6.30;;;2.50;;
16667;SDS011;8447;52.630;4.734;2023-06-10T14:42:37;3.87;;;2.60;;
16667;SDS011;8447;52.630;4.734;2023-06-10T14:45:04;3.53;;;2.40;;
16667;SDS011;8447;52.630;4.734;2023-06-10T14:47:31;3.03;;;2.13;;
16667;SDS011;8447;52.630;4.734;2023-06-10T14:50:00;3.00;;;2.00;;
16667;SDS011;8447;52.630;4.734;2023-06-10T14:52:26;6.13;;;2.73;;
16667;SDS011;8447;52.630;4.734;2023-06-10T14:54:52;5.23;;;2.37;;
16667;SDS011;8447;52.630;4.734;2023-06-10T14:57:19;3.03;;;2.20;;
16667;SDS011;8447;52.630;4.734;2023-06-10T14:59:46;1.83;;;1.73;;